Time;durP1;ratioP1;P1;durP2;ratioP2;P2;SDS_P1;SDS_P2;PMS_P1;PMS_P2;Temp;Humidity;BMP_temperature;BMP_pressure;BME280_temperature;BME280_humidity;BME280_pressure;Samples;Min_cycle;Max_cycle;Signal;HPM_P1;HPM_P2
2024/04/05 00:02:18;;;;;;;10.30;4.97;;;9.60;99.90;;;;;;5089500;28;20704;-61
2024/04/05 00:04:44;;;;;;;13.20;4.90;;;9.60;99.90;;;;;;5080905;28;20247;-61
2024/04/05 00:07:09;;;;;;;7.67;5.10;;;9.60;99.90;;;;;;5087111;28;21029;-61
2024/04/05 00:09:35;;;;;;;10.63;5.03;;;9.60;99.90;;;;;;5086191;28;20532;-61
2024/04/05 00:12:00;;;;;;;9.00;4.73;;;9.60;99.90;;;;;;5085905;28;20268;-61
2024/04/05 00:14:26;;;;;;;8.27;5.30;;;9.60;99.90;;;;;;5079273;28;20209;-61
2024/04/05 00:16:52;;;;;;;9.60;4.80;;;9.70;99.90;;;;;;5079415;28;20661;-61
2024/04/05 00:19:17;;;;;;;13.30;5.30;;;9.60;99.90;;;;;;5083140;28;20193;-62
2024/04/05 00:21:43;;;;;;;8.97;4.63;;;9.60;99.90;;;;;;5079084;28;20731;-62
2024/04/05 00:24:09;;;;;;;7.40;5.03;;;9.60;99.90;;;;;;5084531;28;20185;-62
2024/04/05 00:26:36;;;;;;;12.43;4.40;;;9.60;99.90;;;;;;5079874;28;20182;-61
2024/04/05 00:29:01;;;;;;;6.00;3.70;;;9.60;99.90;;;;;;5076047;28;20205;-61
2024/04/05 00:31:27;;;;;;;7.40;4.37;;;9.60;99.90;;;;;;5081526;28;20957;-61
2024/04/05 00:33:54;;;;;;;6.07;4.07;;;9.60;99.90;;;;;;5080639;28;20205;-61
2024/04/05 00:36:20;;;;;;;6.23;3.50;;;9.60;99.90;;;;;;5087758;28;20185;-61
2024/04/05 00:38:46;;;;;;;5.83;3.80;;;9.50;99.90;;;;;;5080780;28;20955;-61
2024/04/05 00:41:11;;;;;;;7.73;4.13;;;9.50;99.90;;;;;;5086015;28;20444;-61
2024/04/05 00:43:37;;;;;;;8.30;3.80;;;9.60;99.90;;;;;;5078247;28;20185;-61
2024/04/05 00:46:04;;;;;;;4.93;3.75;;;9.60;99.90;;;;;;5083878;28;20185;-62
2024/04/05 00:48:32;;;;;;;8.30;4.23;;;9.50;99.90;;;;;;5076976;28;20228;-62
2024/04/05 00:50:57;;;;;;;6.10;4.10;;;9.50;99.90;;;;;;5084719;28;20456;-62
2024/04/05 00:53:31;;;;;;;5.47;3.70;;;9.50;99.90;;;;;;5084610;28;20445;-61
2024/04/05 00:55:59;;;;;;;8.38;4.78;;;9.40;99.90;;;;;;5082098;28;20174;-62
2024/04/05 00:58:25;;;;;;;5.83;4.27;;;9.40;99.90;;;;;;5080236;28;22225;-62
2024/04/05 01:00:51;;;;;;;7.50;3.57;;;9.30;99.90;;;;;;5077054;28;21055;-61
2024/04/05 01:03:17;;;;;;;7.20;3.70;;;9.30;99.90;;;;;;5075811;28;20456;-61
2024/04/05 01:05:44;;;;;;;7.43;4.37;;;9.30;99.90;;;;;;5082601;28;20174;-61
2024/04/05 01:08:12;;;;;;;11.80;4.13;;;9.30;99.90;;;;;;5082517;28;20441;-62
2024/04/05 01:10:39;;;;;;;7.30;4.17;;;9.40;99.90;;;;;;5085186;28;20443;-61
2024/04/05 01:13:07;;;;;;;6.10;4.30;;;9.40;99.90;;;;;;5081451;28;20440;-62
2024/04/05 01:15:33;;;;;;;5.70;3.93;;;9.40;99.90;;;;;;5081880;28;20481;-61
2024/04/05 01:18:05;;;;;;;8.30;4.50;;;9.40;99.90;;;;;;5083246;28;20413;-62
2024/04/05 01:20:32;;;;;;;7.67;4.17;;;9.40;99.90;;;;;;5078614;28;20447;-61
2024/04/05 01:23:02;;;;;;;6.80;3.83;;;9.40;99.90;;;;;;5083287;28;20981;-61
2024/04/05 01:25:28;;;;;;;5.83;4.40;;;9.40;99.90;;;;;;5085026;28;20432;-62
2024/04/05 01:27:55;;;;;;;5.43;4.27;;;9.40;99.90;;;;;;5082698;28;20954;-62
2024/04/05 01:30:21;;;;;;;6.43;4.80;;;9.40;99.90;;;;;;5082194;28;20436;-61
2024/04/05 01:32:58;;;;;;;6.33;4.50;;;9.40;99.90;;;;;;5084493;28;20471;-61
2024/04/05 01:35:24;;;;;;;9.30;4.97;;;9.40;99.90;;;;;;5082575;28;20256;-61
2024/04/05 01:37:50;;;;;;;9.83;5.67;;;9.40;99.90;;;;;;5079705;28;20788;-62
2024/04/05 01:40:16;;;;;;;9.57;5.07;;;9.30;99.90;;;;;;5082818;28;20515;-61
2024/04/05 01:42:41;;;;;;;9.67;4.70;;;9.40;99.90;;;;;;5081964;28;20251;-61
2024/04/05 01:45:07;;;;;;;8.47;5.27;;;9.40;99.90;;;;;;5083152;28;20185;-61
2024/04/05 01:47:33;;;;;;;9.10;5.00;;;9.40;99.90;;;;;;5081139;28;20243;-60
2024/04/05 01:49:59;;;;;;;9.70;5.13;;;9.40;99.90;;;;;;5080109;28;20208;-62
2024/04/05 01:52:24;;;;;;;8.50;4.70;;;9.30;99.90;;;;;;5080103;28;20212;-61
2024/04/05 01:54:51;;;;;;;8.00;4.77;;;9.40;99.90;;;;;;5082537;28;20212;-60
2024/04/05 01:57:17;;;;;;;6.63;4.63;;;9.30;99.90;;;;;;5079652;28;20328;-61
2024/04/05 01:59:47;;;;;;;5.97;4.47;;;9.30;99.90;;;;;;5081927;28;20510;-61
2024/04/05 02:02:13;;;;;;;9.33;4.53;;;9.30;99.90;;;;;;5081591;28;20190;-61
2024/04/05 02:04:38;;;;;;;8.20;4.70;;;9.30;99.90;;;;;;5081455;28;20468;-62
2024/04/05 02:07:04;;;;;;;8.80;4.50;;;9.30;99.90;;;;;;5081742;28;20178;-61
2024/04/05 02:09:29;;;;;;;9.30;4.70;;;9.30;99.90;;;;;;5078173;28;20177;-61
2024/04/05 02:11:55;;;;;;;11.80;5.70;;;9.30;99.90;;;;;;5083586;28;20623;-61
2024/04/05 02:14:20;;;;;;;12.60;4.70;;;9.30;99.90;;;;;;5078751;28;20198;-61
2024/04/05 02:16:46;;;;;;;9.93;5.00;;;9.30;99.90;;;;;;5077171;28;20239;-61
2024/04/05 02:19:12;;;;;;;7.80;4.70;;;9.30;99.90;;;;;;5078899;28;20265;-61
2024/04/05 02:21:37;;;;;;;13.07;4.87;;;9.30;99.90;;;;;;5079077;28;20193;-62
2024/04/05 02:24:03;;;;;;;6.67;5.10;;;9.20;99.90;;;;;;5082152;28;20666;-61
2024/04/05 02:26:29;;;;;;;10.07;4.50;;;9.20;99.90;;;;;;5079528;28;20190;-62
2024/04/05 02:28:54;;;;;;;8.23;5.23;;;9.30;99.90;;;;;;5079304;28;20178;-62
2024/04/05 02:31:20;;;;;;;6.50;4.50;;;9.20;99.90;;;;;;5082390;28;20209;-61
2024/04/05 02:33:45;;;;;;;9.40;5.60;;;9.30;99.90;;;;;;5082311;28;20610;-62
2024/04/05 02:36:11;;;;;;;12.13;6.50;;;9.20;99.90;;;;;;5079784;28;20174;-62
2024/04/05 02:38:36;;;;;;;10.20;5.93;;;9.30;99.90;;;;;;5079263;28;20281;-61
2024/04/05 02:41:07;;;;;;;11.47;7.33;;;9.20;99.90;;;;;;5078489;28;20233;-61
2024/04/05 02:43:33;;;;;;;11.77;6.90;;;9.20;99.90;;;;;;5080384;28;20210;-61
2024/04/05 02:45:59;;;;;;;11.70;6.60;;;9.30;99.90;;;;;;5081093;28;20443;-62
2024/04/05 02:48:24;;;;;;;16.77;6.93;;;9.20;99.90;;;;;;5082451;28;20202;-61
2024/04/05 02:50:50;;;;;;;9.37;6.60;;;9.20;99.90;;;;;;5082242;28;20209;-60
2024/04/05 02:53:15;;;;;;;11.10;7.10;;;9.20;99.90;;;;;;5088515;28;20229;-62
2024/04/05 02:55:41;;;;;;;15.20;7.10;;;9.20;99.90;;;;;;5085558;28;20770;-62
2024/04/05 02:58:06;;;;;;;11.53;7.73;;;9.30;99.90;;;;;;5083275;28;20170;-62
2024/04/05 03:00:36;;;;;;;11.90;7.30;;;9.20;99.90;;;;;;5084370;28;20226;-61
2024/04/05 03:03:02;;;;;;;12.40;7.93;;;9.20;99.90;;;;;;5090167;28;20170;-60
2024/04/05 03:05:28;;;;;;;11.53;7.07;;;9.20;99.90;;;;;;5084295;28;20427;-62
2024/04/05 03:07:54;;;;;;;10.60;7.23;;;9.20;99.90;;;;;;5086348;28;20217;-61
2024/04/05 03:10:19;;;;;;;8.97;6.57;;;9.20;99.90;;;;;;5084892;28;20459;-61
2024/04/05 03:12:45;;;;;;;11.97;7.37;;;9.20;99.90;;;;;;5084148;28;20529;-62
2024/04/05 03:15:10;;;;;;;12.23;7.30;;;9.20;99.90;;;;;;5083020;28;20198;-62
2024/04/05 03:17:36;;;;;;;15.07;8.67;;;9.20;99.90;;;;;;5083645;28;20636;-61
2024/04/05 03:20:01;;;;;;;12.93;7.57;;;9.20;99.90;;;;;;5085633;28;20166;-62
2024/04/05 03:22:27;;;;;;;10.68;7.43;;;9.20;99.90;;;;;;5081849;28;20616;-61
2024/04/05 03:24:53;;;;;;;11.80;7.30;;;9.10;99.90;;;;;;5082740;28;20729;-61
2024/04/05 03:27:19;;;;;;;12.87;7.40;;;9.10;99.90;;;;;;5084337;28;20849;-61
2024/04/05 03:29:44;;;;;;;10.70;7.03;;;9.10;99.90;;;;;;5085030;28;20186;-61
2024/04/05 03:32:10;;;;;;;7.23;6.50;;;9.10;99.90;;;;;;5084987;28;20790;-62
2024/04/05 03:34:36;;;;;;;10.70;7.00;;;9.00;99.90;;;;;;5085736;28;20206;-61
2024/04/05 03:37:01;;;;;;;10.40;6.60;;;9.00;99.90;;;;;;5083565;28;20589;-62
2024/04/05 03:39:27;;;;;;;13.87;6.53;;;9.00;99.90;;;;;;5080947;28;20170;-61
2024/04/05 03:41:53;;;;;;;11.97;6.73;;;8.90;99.90;;;;;;5081822;28;20656;-62
2024/04/05 03:44:18;;;;;;;15.47;7.27;;;8.90;99.90;;;;;;5083782;28;20175;-61
2024/04/05 03:46:45;;;;;;;10.57;6.50;;;8.90;99.90;;;;;;5083766;28;20188;-61
2024/04/05 03:49:11;;;;;;;9.25;6.57;;;8.80;99.90;;;;;;5077566;28;20173;-61
2024/04/05 03:51:36;;;;;;;12.10;6.80;;;8.80;99.90;;;;;;5084210;28;20202;-61
2024/04/05 03:54:03;;;;;;;12.63;6.10;;;8.80;99.90;;;;;;5085754;28;20191;-61
2024/04/05 03:56:29;;;;;;;10.20;5.87;;;8.80;99.90;;;;;;5081305;28;20179;-62
2024/04/05 03:58:54;;;;;;;19.83;6.70;;;8.80;99.90;;;;;;5080591;28;20443;-60
2024/04/05 04:01:20;;;;;;;8.23;6.40;;;8.70;99.90;;;;;;5076447;28;20205;-58
2024/04/05 04:03:45;;;;;;;12.10;6.05;;;8.70;99.90;;;;;;5093195;28;20186;-62
2024/04/05 04:06:11;;;;;;;9.17;5.60;;;8.70;99.90;;;;;;5082556;28;20261;-62
2024/04/05 04:08:37;;;;;;;12.10;5.77;;;8.70;99.90;;;;;;5075310;28;20182;-62
2024/04/05 04:11:04;;;;;;;10.60;6.07;;;8.60;99.90;;;;;;5074558;28;20220;-61
2024/04/05 04:13:30;;;;;;;6.33;5.03;;;8.70;99.90;;;;;;5075786;28;20456;-63
2024/04/05 04:15:56;;;;;;;14.40;5.00;;;8.70;99.90;;;;;;5077291;28;20435;-62
2024/04/05 04:18:22;;;;;;;10.77;6.00;;;8.60;99.90;;;;;;5081026;28;20401;-62
2024/04/05 04:20:49;;;;;;;7.77;5.60;;;8.60;99.90;;;;;;5073536;28;20498;-62
2024/04/05 04:23:14;;;;;;;9.25;6.30;;;8.60;99.90;;;;;;5072839;28;20246;-63
2024/04/05 04:25:40;;;;;;;11.90;5.77;;;8.50;99.90;;;;;;5078437;28;20573;-63
2024/04/05 04:28:07;;;;;;;11.80;5.80;;;8.50;99.90;;;;;;5075701;28;20225;-62
2024/04/05 04:30:33;;;;;;;7.32;5.38;;;8.50;99.90;;;;;;5070836;28;20185;-61
2024/04/05 04:33:00;;;;;;;6.90;5.10;;;8.50;99.90;;;;;;5065265;28;20174;-61
2024/04/05 04:35:26;;;;;;;9.00;5.20;;;8.50;99.90;;;;;;5056204;28;20432;-62
2024/04/05 04:37:54;;;;;;;7.00;4.93;;;8.50;99.90;;;;;;5071292;28;20908;-62
2024/04/05 04:40:20;;;;;;;9.70;5.23;;;8.40;99.90;;;;;;5075766;28;20206;-63
2024/04/05 04:42:46;;;;;;;9.60;5.77;;;8.40;99.90;;;;;;5076314;28;20512;-62
2024/04/05 04:45:11;;;;;;;11.53;5.57;;;8.40;99.90;;;;;;5078268;28;20194;-62
2024/04/05 04:47:37;;;;;;;17.63;7.00;;;8.40;99.90;;;;;;5080026;28;20242;-62
2024/04/05 04:50:04;;;;;;;39.73;6.70;;;8.40;99.90;;;;;;5076222;28;20567;-64
2024/04/05 04:52:30;;;;;;;12.07;5.90;;;8.40;99.90;;;;;;5073773;28;20858;-62
2024/04/05 04:54:57;;;;;;;8.50;5.60;;;8.30;99.90;;;;;;5077495;28;20525;-63
2024/04/05 04:57:23;;;;;;;9.77;5.87;;;8.30;99.90;;;;;;5083588;28;21056;-62
2024/04/05 04:59:50;;;;;;;22.93;5.40;;;8.30;99.90;;;;;;5080489;28;20412;-63
2024/04/05 05:02:15;;;;;;;17.30;4.80;;;8.30;99.90;;;;;;5080386;28;20458;-62
2024/04/05 05:04:41;;;;;;;19.67;6.57;;;8.30;99.90;;;;;;5083058;28;20174;-61
2024/04/05 05:07:07;;;;;;;62.63;12.60;;;8.30;99.90;;;;;;5084175;28;20225;-62
2024/04/05 05:09:32;;;;;;;25.50;8.07;;;8.30;99.90;;;;;;5077161;28;20175;-62
2024/04/05 05:11:59;;;;;;;26.47;6.37;;;8.20;99.90;;;;;;5074433;28;20556;-62
2024/04/05 05:14:25;;;;;;;11.43;6.20;;;8.20;99.90;;;;;;5084499;28;20232;-61
2024/04/05 05:16:51;;;;;;;12.93;6.07;;;8.20;99.90;;;;;;5083294;28;20408;-62
2024/04/05 05:19:17;;;;;;;12.70;6.30;;;8.20;99.90;;;;;;5078576;28;20429;-62
2024/04/05 05:21:43;;;;;;;14.88;6.22;;;8.20;99.90;;;;;;5083192;28;20431;-62
2024/04/05 05:24:09;;;;;;;22.03;6.70;;;8.20;99.90;;;;;;5082849;28;20416;-61
2024/04/05 05:26:34;;;;;;;19.70;6.77;;;8.20;99.90;;;;;;5073910;28;20258;-62
2024/04/05 05:29:00;;;;;;;22.98;7.15;;;8.20;99.90;;;;;;5084944;28;20181;-62
2024/04/05 05:31:26;;;;;;;34.33;7.33;;;8.20;99.90;;;;;;5080091;28;20194;-64
2024/04/05 05:33:52;;;;;;;48.80;8.90;;;8.20;99.90;;;;;;5077799;28;20194;-61
2024/04/05 05:36:18;;;;;;;46.70;8.90;;;8.20;99.90;;;;;;5079533;28;20171;-61
2024/04/05 05:38:44;;;;;;;73.27;7.90;;;8.20;99.90;;;;;;5078096;28;20443;-63
2024/04/05 05:41:09;;;;;;;44.33;7.70;;;8.20;99.90;;;;;;5082492;28;20214;-62
2024/04/05 05:43:35;;;;;;;76.93;9.90;;;8.20;99.90;;;;;;5084616;28;20178;-60
2024/04/05 05:46:00;;;;;;;18.00;5.47;;;8.30;99.90;;;;;;5081356;28;20181;-63
2024/04/05 05:48:26;;;;;;;234.23;17.20;;;8.20;99.90;;;;;;5077672;28;20182;-62
2024/04/05 05:50:51;;;;;;;86.13;9.43;;;8.20;99.90;;;;;;5074967;28;20225;-63
2024/04/05 05:53:18;;;;;;;180.52;14.10;;;8.20;99.90;;;;;;5077364;28;20173;-62
2024/04/05 05:55:48;;;;;;;24.17;6.53;;;8.20;99.90;;;;;;5076444;28;20174;-63
2024/04/05 05:58:14;;;;;;;10.57;6.17;;;8.30;99.90;;;;;;5073843;28;20421;-62
2024/04/05 06:00:40;;;;;;;18.23;6.50;;;8.30;99.90;;;;;;5086088;28;20430;-62
2024/04/05 06:03:07;;;;;;;58.63;8.43;;;8.30;99.90;;;;;;5078624;28;20265;-62
2024/04/05 06:05:33;;;;;;;57.50;9.90;;;8.40;99.90;;;;;;5083812;28;20481;-61
2024/04/05 06:07:58;;;;;;;46.63;9.50;;;8.40;99.90;;;;;;5080710;28;20408;-62
2024/04/05 06:10:24;;;;;;;47.87;8.77;;;8.40;99.90;;;;;;5081005;28;20568;-62
2024/04/05 06:12:50;;;;;;;66.97;11.57;;;8.40;99.90;;;;;;5082275;28;20253;-61
2024/04/05 06:15:15;;;;;;;46.27;7.67;;;8.40;99.90;;;;;;5083218;28;20186;-63
2024/04/05 06:17:45;;;;;;;44.60;7.83;;;8.40;99.90;;;;;;5081681;28;20170;-62
2024/04/05 06:20:10;;;;;;;22.03;6.70;;;8.40;99.90;;;;;;5079568;28;20651;-62
2024/04/05 06:22:36;;;;;;;40.77;5.90;;;8.50;99.90;;;;;;5075942;28;20425;-61
2024/04/05 06:25:02;;;;;;;31.53;5.43;;;8.50;99.90;;;;;;5082234;28;20182;-62
2024/04/05 06:27:28;;;;;;;9.38;4.20;;;8.50;99.90;;;;;;5082733;28;20439;-62
2024/04/05 06:29:57;;;;;;;18.20;5.57;;;8.60;99.90;;;;;;5085167;28;20182;-62
2024/04/05 06:32:23;;;;;;;5.50;3.93;;;8.60;99.90;;;;;;5081064;28;20661;-63
2024/04/05 06:34:50;;;;;;;3.53;3.23;;;8.70;99.90;;;;;;5079149;28;20482;-62
2024/04/05 06:37:16;;;;;;;7.93;3.50;;;8.70;99.90;;;;;;5079707;28;20435;-62
2024/04/05 06:39:42;;;;;;;9.73;3.60;;;8.80;99.90;;;;;;5080943;28;20424;-62
2024/04/05 06:42:08;;;;;;;6.83;4.57;;;8.80;99.90;;;;;;5086181;28;20448;-63
2024/04/05 06:44:35;;;;;;;8.43;5.00;;;8.80;99.90;;;;;;5085236;28;21177;-61
2024/04/05 06:47:08;;;;;;;8.10;5.27;;;8.90;99.90;;;;;;5080702;28;20426;-62
2024/04/05 06:49:34;;;;;;;14.43;6.73;;;8.90;99.90;;;;;;5086278;28;20419;-62
2024/04/05 06:52:05;;;;;;;6.00;4.53;;;8.90;99.90;;;;;;5088532;28;20460;-62
2024/04/05 06:54:34;;;;;;;5.57;3.70;;;9.00;99.90;;;;;;5085756;28;20456;-62
2024/04/05 06:57:00;;;;;;;24.10;6.07;;;9.00;99.90;;;;;;5079429;28;21122;-62
2024/04/05 06:59:26;;;;;;;16.50;4.37;;;9.10;99.90;;;;;;5078320;28;20420;-62
2024/04/05 07:01:53;;;;;;;9.40;5.00;;;9.10;99.90;;;;;;5081669;28;20590;-62
2024/04/05 07:04:23;;;;;;;14.17;5.93;;;9.10;99.90;;;;;;5081621;28;20261;-62
2024/04/05 07:06:49;;;;;;;13.30;5.43;;;9.10;99.90;;;;;;5088348;28;20415;-60
2024/04/05 07:09:15;;;;;;;5.33;4.20;;;9.20;99.90;;;;;;5079129;28;20747;-63
2024/04/05 07:11:40;;;;;;;11.03;5.00;;;9.30;99.90;;;;;;5080648;28;20434;-62
2024/04/05 07:14:07;;;;;;;6.37;4.83;;;9.30;99.90;;;;;;5080685;28;20198;-62
2024/04/05 07:16:32;;;;;;;6.20;5.50;;;9.30;99.90;;;;;;5080618;28;20165;-61
2024/04/05 07:18:58;;;;;;;7.80;4.67;;;9.40;99.90;;;;;;5080452;28;20481;-62
2024/04/05 07:21:24;;;;;;;8.33;5.30;;;9.40;99.90;;;;;;5081959;28;20851;-61
2024/04/05 07:23:51;;;;;;;9.20;8.00;;;9.40;99.90;;;;;;5081638;28;20178;-63
2024/04/05 07:26:17;;;;;;;7.20;6.50;;;9.50;99.90;;;;;;5087957;28;20189;-61
2024/04/05 07:28:43;;;;;;;8.67;5.93;;;9.60;99.90;;;;;;5086420;28;20797;-62
2024/04/05 07:31:09;;;;;;;6.00;5.00;;;9.70;99.90;;;;;;5087590;28;20526;-62
2024/04/05 07:33:35;;;;;;;5.03;4.00;;;9.80;99.90;;;;;;5085005;28;20561;-60
2024/04/05 07:36:00;;;;;;;6.63;4.90;;;9.90;99.90;;;;;;5082421;28;20412;-62
2024/04/05 07:38:26;;;;;;;9.33;6.33;;;10.00;99.90;;;;;;5084774;28;20193;-63
2024/04/05 07:40:51;;;;;;;19.43;8.23;;;10.10;99.90;;;;;;5081120;28;20769;-62
2024/04/05 07:43:17;;;;;;;19.93;9.60;;;10.20;99.90;;;;;;5082399;28;20186;-62
2024/04/05 07:45:43;;;;;;;12.87;7.50;;;10.30;99.90;;;;;;5085504;28;20174;-62
2024/04/05 07:48:09;;;;;;;9.90;6.27;;;10.40;99.90;;;;;;5084728;28;20175;-63
2024/04/05 07:50:34;;;;;;;9.67;6.33;;;10.40;99.90;;;;;;5082711;28;20198;-61
2024/04/05 07:53:00;;;;;;;6.70;4.80;;;10.50;99.90;;;;;;5085353;28;20493;-62
2024/04/05 07:55:25;;;;;;;12.43;5.33;;;10.60;99.90;;;;;;5079801;28;20202;-62
2024/04/05 07:57:53;;;;;;;5.33;4.73;;;10.70;99.90;;;;;;5084430;28;20273;-62
2024/04/05 08:00:20;;;;;;;5.10;4.20;;;10.80;99.90;;;;;;5082775;28;20197;-62
2024/04/05 08:02:52;;;;;;;5.70;3.90;;;10.90;99.90;;;;;;5084660;28;20454;-62
2024/04/05 08:05:19;;;;;;;8.87;3.70;;;11.00;99.90;;;;;;5085106;28;20832;-63
2024/04/05 08:07:44;;;;;;;6.97;4.00;;;11.10;99.90;;;;;;5084420;28;20443;-63
2024/04/05 08:10:10;;;;;;;6.60;3.90;;;11.30;99.90;;;;;;5081579;28;20417;-61
2024/04/05 08:12:39;;;;;;;7.97;5.60;;;11.40;99.90;;;;;;5084462;28;20736;-62
2024/04/05 08:15:10;;;;;;;9.73;5.10;;;11.60;99.90;;;;;;5080324;28;20194;-62
2024/04/05 08:17:36;;;;;;;6.67;5.70;;;11.70;99.90;;;;;;5086272;28;20417;-61
2024/04/05 08:20:02;;;;;;;6.93;5.23;;;11.80;99.90;;;;;;5084316;28;20840;-61
2024/04/05 08:22:28;;;;;;;9.33;4.70;;;12.00;99.90;;;;;;5087095;28;20432;-63
2024/04/05 08:24:56;;;;;;;6.13;4.33;;;12.10;99.90;;;;;;5086169;28;20412;-63
2024/04/05 08:27:22;;;;;;;5.30;4.10;;;12.20;99.90;;;;;;5082117;28;20270;-63
2024/04/05 08:29:48;;;;;;;6.40;4.60;;;12.30;99.90;;;;;;5085559;28;20888;-63
2024/04/05 08:32:13;;;;;;;5.50;3.63;;;12.40;99.90;;;;;;5079971;28;20193;-63
2024/04/05 08:34:42;;;;;;;4.80;3.80;;;12.50;99.90;;;;;;5086068;28;20205;-63
2024/04/05 08:37:08;;;;;;;9.40;3.97;;;12.70;99.90;;;;;;5083573;28;20174;-63
2024/04/05 08:39:33;;;;;;;6.88;4.15;;;12.80;99.90;;;;;;5083321;28;20435;-62
2024/04/05 08:42:10;;;;;;;7.37;4.03;;;12.90;99.90;;;;;;5087441;28;20688;-63
2024/04/05 08:44:37;;;;;;;5.73;3.90;;;13.00;99.90;;;;;;5078305;28;20166;-63
2024/04/05 08:47:06;;;;;;;7.40;3.70;;;13.20;99.90;;;;;;5078869;28;20429;-61
2024/04/05 08:49:33;;;;;;;6.83;4.37;;;13.30;99.90;;;;;;5080823;28;20930;-62
2024/04/05 08:52:00;;;;;;;12.10;3.70;;;13.50;99.90;;;;;;5079051;28;20458;-63
2024/04/05 08:54:31;;;;;;;6.13;3.40;;;13.60;99.90;;;;;;5081537;28;20223;-62
2024/04/05 08:56:59;;;;;;;11.03;4.13;;;13.80;99.90;;;;;;5080442;28;20419;-63
2024/04/05 08:59:28;;;;;;;6.47;4.10;;;13.90;99.90;;;;;;5080441;28;20979;-62
2024/04/05 09:01:57;;;;;;;8.37;3.57;;;14.10;99.90;;;;;;5079554;28;20466;-63
2024/04/05 09:04:23;;;;;;;6.70;3.77;;;14.20;99.90;;;;;;5082394;28;20473;-62
2024/04/05 09:06:49;;;;;;;6.47;3.80;;;14.30;99.90;;;;;;5080146;28;20432;-63
2024/04/05 09:09:28;;;;;;;5.13;3.07;;;14.50;99.90;;;;;;5078501;28;20252;-62
2024/04/05 09:12:14;;;;;;;3.83;2.03;;;14.60;99.90;;;;;;5082026;28;20201;-62
2024/04/05 09:14:39;;;;;;;2.50;1.45;;;14.70;99.90;;;;;;5083715;28;20523;-63
2024/04/05 09:17:15;;;;;;;4.27;1.57;;;14.90;99.90;;;;;;5085823;28;20220;-62
2024/04/05 09:19:41;;;;;;;1.40;1.30;;;15.10;99.90;;;;;;5081524;28;20198;-62
2024/04/05 09:22:07;;;;;;;1.87;1.40;;;15.30;96.80;;;;;;5077564;28;20191;-62
2024/04/05 09:24:33;;;;;;;1.67;1.43;;;15.40;95.90;;;;;;5073921;28;20944;-61
2024/04/05 09:27:00;;;;;;;4.93;1.33;;;15.60;82.40;;;;;;5082080;28;20174;-62
2024/04/05 09:29:27;;;;;;;8.27;1.80;;;15.80;84.20;;;;;;5081173;28;20427;-62
2024/04/05 09:31:52;;;;;;;2.93;1.40;;;15.90;84.10;;;;;;5079044;28;20452;-62
2024/04/05 09:34:25;;;;;;;5.57;2.40;;;16.20;81.40;;;;;;5076565;28;20460;-61
2024/04/05 09:36:51;;;;;;;1.40;0.97;;;16.40;74.70;;;;;;5080101;28;20171;-62
2024/04/05 09:39:21;;;;;;;7.93;1.92;;;16.50;67.50;;;;;;5084143;28;20407;-62
2024/04/05 09:41:51;;;;;;;8.80;1.70;;;16.50;61.30;;;;;;5077110;28;20259;-62
2024/04/05 09:44:17;;;;;;;2.13;1.83;;;16.60;62.00;;;;;;5081171;28;20432;-63
2024/04/05 09:46:44;;;;;;;1.93;1.50;;;16.70;60.30;;;;;;5069121;28;20440;-63
2024/04/05 09:49:12;;;;;;;1.80;1.40;;;16.70;60.60;;;;;;5080726;28;20440;-61
2024/04/05 09:51:44;;;;;;;2.97;1.23;;;16.90;59.20;;;;;;5074647;28;20452;-62
2024/04/05 09:54:15;;;;;;;1.60;1.10;;;17.00;60.90;;;;;;5079675;28;20206;-62
2024/04/05 09:56:42;;;;;;;0.90;0.90;;;17.20;61.30;;;;;;5079050;28;20795;-62
2024/04/05 09:59:30;;;;;;;1.30;1.00;;;17.40;58.90;;;;;;5078653;28;20181;-62
2024/04/05 10:01:56;;;;;;;1.83;1.07;;;17.50;56.40;;;;;;5083674;28;20440;-62
2024/04/05 10:04:23;;;;;;;4.23;1.00;;;17.70;56.20;;;;;;5077082;28;20448;-62
2024/04/05 10:06:49;;;;;;;3.27;1.40;;;17.70;56.70;;;;;;5084792;28;20994;-62
2024/04/05 10:09:15;;;;;;;2.60;0.90;;;17.80;55.40;;;;;;5073362;28;20465;-62
2024/04/05 10:11:42;;;;;;;3.03;1.70;;;17.90;54.90;;;;;;5084983;28;20844;-61
2024/04/05 10:14:08;;;;;;;5.18;1.17;;;17.90;52.30;;;;;;5080744;28;20688;-62
2024/04/05 10:16:34;;;;;;;1.53;1.00;;;18.00;51.90;;;;;;5085679;28;20205;-61
2024/04/05 10:19:09;;;;;;;7.37;1.73;;;18.00;52.00;;;;;;5075234;28;20474;-62
2024/04/05 10:21:34;;;;;;;2.70;1.33;;;18.00;50.80;;;;;;5084616;28;20189;-61
2024/04/05 10:24:00;;;;;;;3.00;1.00;;;18.00;50.80;;;;;;5088457;28;20461;-62
2024/04/05 10:26:25;;;;;;;2.23;1.20;;;18.20;51.50;;;;;;5081247;28;20268;-61
2024/04/05 10:29:05;;;;;;;3.10;0.80;;;18.30;51.60;;;;;;5078414;28;20170;-62
2024/04/05 10:31:32;;;;;;;1.10;1.00;;;18.30;51.30;;;;;;5086379;28;20198;-62
2024/04/05 10:34:00;;;;;;;4.97;1.40;;;18.30;51.80;;;;;;5080047;28;20466;-63
2024/04/05 10:36:26;;;;;;;1.47;1.00;;;18.50;51.90;;;;;;5081608;28;20424;-62
2024/04/05 10:38:52;;;;;;;2.23;1.20;;;18.50;52.20;;;;;;5085162;28;20404;-61
2024/04/05 10:41:18;;;;;;;5.10;2.93;;;18.50;52.10;;;;;;5085388;28;20446;-62
2024/04/05 10:43:44;;;;;;;2.10;1.27;;;18.50;51.20;;;;;;5085543;28;20421;-62
2024/04/05 10:46:10;;;;;;;3.67;1.37;;;18.60;51.60;;;;;;5077629;28;20178;-61
2024/04/05 10:48:35;;;;;;;2.20;1.00;;;18.60;52.10;;;;;;5076815;28;20175;-59
2024/04/05 10:51:04;;;;;;;1.73;1.30;;;18.70;52.30;;;;;;5082572;28;20443;-63
2024/04/05 10:53:30;;;;;;;1.67;1.37;;;18.60;52.20;;;;;;5082497;28;20838;-62
2024/04/05 10:55:56;;;;;;;3.93;1.40;;;18.60;52.20;;;;;;5077218;28;20513;-63
2024/04/05 10:58:21;;;;;;;1.30;1.20;;;18.60;52.90;;;;;;5084971;28;20553;-62
2024/04/05 11:00:47;;;;;;;2.47;1.23;;;18.60;52.90;;;;;;5080789;28;20193;-62
2024/04/05 11:03:16;;;;;;;2.90;1.13;;;18.60;54.10;;;;;;5080862;28;20236;-62
2024/04/05 11:05:44;;;;;;;5.32;1.50;;;18.60;53.90;;;;;;5075272;28;20182;-62
2024/04/05 11:08:14;;;;;;;1.40;1.07;;;18.80;54.00;;;;;;5076085;28;20171;-63
2024/04/05 11:10:40;;;;;;;2.10;1.43;;;18.90;54.50;;;;;;5085541;28;20447;-62
2024/04/05 11:13:16;;;;;;;5.47;1.75;;;19.10;55.20;;;;;;5081494;28;20427;-63
2024/04/05 11:15:43;;;;;;;2.70;1.50;;;19.30;54.70;;;;;;5080369;28;20219;-63
2024/04/05 11:18:09;;;;;;;2.50;1.50;;;19.50;52.50;;;;;;5081770;28;20409;-63
2024/04/05 11:20:39;;;;;;;2.03;1.23;;;19.60;53.20;;;;;;5085133;28;20505;-63
2024/04/05 11:23:09;;;;;;;16.80;1.97;;;19.80;51.50;;;;;;5081885;28;20417;-63
2024/04/05 11:25:35;;;;;;;6.67;1.03;;;19.80;51.20;;;;;;5081346;28;20444;-62
2024/04/05 11:28:11;;;;;;;9.10;1.70;;;19.90;50.60;;;;;;5083407;28;20517;-62
2024/04/05 11:30:43;;;;;;;8.43;1.70;;;20.00;49.10;;;;;;5079775;28;20198;-62
2024/04/05 11:33:09;;;;;;;4.27;1.20;;;20.10;47.30;;;;;;5083479;28;20462;-62
2024/04/05 11:35:35;;;;;;;7.63;1.47;;;20.20;47.10;;;;;;5085247;28;21021;-62
2024/04/05 11:38:00;;;;;;;3.70;1.27;;;20.30;46.50;;;;;;5078485;28;20525;-62
2024/04/05 11:40:26;;;;;;;2.40;1.03;;;20.30;44.90;;;;;;5086729;28;20182;-62
2024/04/05 11:42:51;;;;;;;5.17;1.13;;;20.30;45.20;;;;;;5081789;28;20165;-62
2024/04/05 11:45:18;;;;;;;2.63;1.20;;;20.30;45.60;;;;;;5081617;28;20179;-64
2024/04/05 11:47:46;;;;;;;1.63;1.20;;;20.40;45.80;;;;;;5078432;28;20641;-63
2024/04/05 11:50:13;;;;;;;3.90;1.40;;;20.50;45.00;;;;;;5084539;28;20439;-62
2024/04/05 11:52:39;;;;;;;5.00;1.13;;;20.50;44.80;;;;;;5078247;28;20174;-62
2024/04/05 11:55:05;;;;;;;1.87;1.20;;;20.50;45.30;;;;;;5082582;28;20455;-64
2024/04/05 11:57:32;;;;;;;8.90;2.03;;;20.60;45.80;;;;;;5088640;28;20770;-63
2024/04/05 11:59:58;;;;;;;4.23;1.30;;;20.80;45.50;;;;;;5082335;28;20427;-64
2024/04/05 12:02:23;;;;;;;2.40;1.40;;;20.90;45.30;;;;;;5075491;28;20189;-63
2024/04/05 12:04:49;;;;;;;4.93;1.33;;;21.00;44.90;;;;;;5080825;28;20431;-64
2024/04/05 12:07:15;;;;;;;1.50;1.00;;;21.00;44.30;;;;;;5082038;28;20181;-64
2024/04/05 12:09:41;;;;;;;5.10;1.40;;;21.20;45.70;;;;;;5082362;28;20205;-63
2024/04/05 12:12:07;;;;;;;1.20;1.10;;;21.30;44.90;;;;;;5073636;28;20201;-64
2024/04/05 12:14:33;;;;;;;3.90;1.30;;;21.50;44.10;;;;;;5082130;28;20732;-64
2024/04/05 12:17:00;;;;;;;2.90;1.10;;;21.60;44.60;;;;;;5074940;28;20956;-64
2024/04/05 12:19:26;;;;;;;9.35;2.47;;;21.60;45.00;;;;;;5075273;28;20181;-64
2024/04/05 12:21:51;;;;;;;3.93;1.30;;;21.60;44.60;;;;;;5082855;28;20206;-64
2024/04/05 12:24:17;;;;;;;5.03;1.53;;;21.50;44.20;;;;;;5083589;28;20182;-64
2024/04/05 12:26:42;;;;;;;6.53;1.77;;;21.50;45.10;;;;;;5076080;28;20618;-63
2024/04/05 12:29:08;;;;;;;25.53;2.50;;;21.60;45.60;;;;;;5081946;28;20177;-64
2024/04/05 12:31:33;;;;;;;4.23;1.47;;;21.50;44.80;;;;;;5085534;28;20269;-63
2024/04/05 12:33:59;;;;;;;10.27;1.60;;;21.30;44.50;;;;;;5077214;28;22250;-63
2024/04/05 12:36:24;;;;;;;2.63;1.30;;;21.20;44.80;;;;;;5083795;28;20170;-63
2024/04/05 12:38:56;;;;;;;5.40;1.33;;;21.10;45.00;;;;;;5082966;28;20170;-63
2024/04/05 12:41:24;;;;;;;2.10;1.40;;;20.90;45.00;;;;;;5078825;28;20209;-63
2024/04/05 12:43:50;;;;;;;3.43;1.10;;;20.80;45.40;;;;;;5083637;28;20423;-63
2024/04/05 12:46:15;;;;;;;3.93;1.20;;;20.80;45.60;;;;;;5086708;28;20914;-63
2024/04/05 12:48:41;;;;;;;4.87;1.30;;;20.90;46.00;;;;;;5085629;28;20175;-63